Time;durP1;ratioP1;P1;durP2;ratioP2;P2;SDS_P1;SDS_P2;PMS_P1;PMS_P2;Temp;Humidity;BMP_temperature;BMP_pressure;BME280_temperature;BME280_humidity;BME280_pressure;Samples;Min_cycle;Max_cycle;Signal;HPM_P1;HPM_P2
2021/12/19 00:02:25;;;;;;;3.67;3.03;;;5.90;99.90;;;;;;8306025;28;20285;-84
2021/12/19 00:10:46;;;;;;;3.87;3.30;;;6.00;99.90;;;;;;8327684;28;20229;-84
2021/12/19 00:14:48;;;;;;;6.70;3.63;;;6.00;99.90;;;;;;8303029;28;20213;-84
2021/12/19 00:18:50;;;;;;;5.20;4.00;;;6.00;99.90;;;;;;8309730;28;20186;-84
2021/12/19 00:22:51;;;;;;;7.30;3.80;;;6.00;99.90;;;;;;8305435;28;20191;-84
2021/12/19 00:26:52;;;;;;;9.13;4.47;;;6.00;99.90;;;;;;8306759;28;20201;-84
2021/12/19 00:30:53;;;;;;;7.40;3.97;;;6.00;99.90;;;;;;8310657;28;20186;-83
2021/12/19 00:34:54;;;;;;;8.23;4.70;;;6.10;99.90;;;;;;8325753;28;20203;-84
2021/12/19 00:38:56;;;;;;;5.47;4.53;;;6.10;99.90;;;;;;8304954;28;20190;-84
2021/12/19 00:43:09;;;;;;;7.60;4.80;;;6.10;99.90;;;;;;8305507;28;20189;-84
2021/12/19 00:47:10;;;;;;;7.60;4.40;;;6.10;99.90;;;;;;8312648;28;20203;-82
2021/12/19 00:51:14;;;;;;;13.93;5.13;;;6.10;99.90;;;;;;8304925;28;20194;-84
2021/12/19 00:55:17;;;;;;;9.57;5.13;;;6.10;99.90;;;;;;8316674;28;20245;-83
2021/12/19 00:59:19;;;;;;;10.20;5.07;;;6.10;99.90;;;;;;8308580;28;20213;-84
2021/12/19 01:03:21;;;;;;;8.40;5.10;;;6.10;99.90;;;;;;8306257;28;20210;-84
2021/12/19 01:07:22;;;;;;;7.47;4.50;;;6.20;99.90;;;;;;8306398;28;20190;-83
2021/12/19 01:11:24;;;;;;;9.10;5.77;;;6.20;99.90;;;;;;8301708;28;20314;-82
2021/12/19 01:15:24;;;;;;;7.70;4.97;;;6.20;99.90;;;;;;8309457;28;20285;-83
2021/12/19 01:19:25;;;;;;;8.17;5.47;;;6.20;99.90;;;;;;8311322;28;20194;-83
2021/12/19 01:23:26;;;;;;;7.13;4.70;;;6.20;99.90;;;;;;8315623;28;20274;-82
2021/12/19 01:27:27;;;;;;;7.60;5.57;;;6.20;99.90;;;;;;8309329;28;20194;-84
2021/12/19 01:31:28;;;;;;;9.13;5.70;;;6.20;99.90;;;;;;8309144;28;20187;-82
2021/12/19 01:35:30;;;;;;;11.70;6.13;;;6.20;99.90;;;;;;8305887;28;20214;-83
2021/12/19 01:39:30;;;;;;;8.67;5.63;;;6.20;99.90;;;;;;8309015;28;20265;-82
2021/12/19 01:43:31;;;;;;;9.20;6.03;;;6.20;99.90;;;;;;8309011;28;20206;-84
2021/12/19 01:47:33;;;;;;;11.93;6.20;;;6.30;99.90;;;;;;8310145;28;20347;-84
2021/12/19 01:51:33;;;;;;;9.93;5.73;;;6.30;99.90;;;;;;8308849;28;20182;-84
2021/12/19 01:55:35;;;;;;;12.07;5.73;;;6.30;99.90;;;;;;8309725;28;20276;-83
2021/12/19 01:59:35;;;;;;;8.80;5.70;;;6.30;99.90;;;;;;8305768;28;20289;-84
2021/12/19 02:03:37;;;;;;;11.10;5.00;;;6.30;99.90;;;;;;8316834;28;20179;-84
2021/12/19 02:07:42;;;;;;;9.00;4.80;;;6.30;99.90;;;;;;8314520;28;20209;-82
2021/12/19 02:11:43;;;;;;;10.90;4.63;;;6.30;99.90;;;;;;8312346;28;20178;-84
2021/12/19 02:15:45;;;;;;;8.83;4.33;;;6.30;99.90;;;;;;8312210;28;20399;-85
2021/12/19 02:19:48;;;;;;;7.00;4.77;;;6.30;99.90;;;;;;8307890;28;20183;-83
2021/12/19 02:23:49;;;;;;;8.50;4.60;;;6.20;99.90;;;;;;8329175;28;20187;-82
2021/12/19 02:27:50;;;;;;;7.57;3.80;;;6.20;99.90;;;;;;8309566;28;20196;-83
2021/12/19 02:31:51;;;;;;;8.43;4.40;;;6.20;99.90;;;;;;8318277;28;20246;-82
2021/12/19 02:36:02;;;;;;;13.30;4.43;;;6.20;99.90;;;;;;8307414;28;20214;-83
2021/12/19 02:40:41;;;;;;;8.00;3.83;;;6.20;99.90;;;;;;8312795;28;20187;-84
2021/12/19 02:48:49;;;;;;;7.77;4.07;;;6.10;99.90;;;;;;8328408;28;20201;-83
2021/12/19 02:52:51;;;;;;;10.23;4.23;;;6.10;99.90;;;;;;8308987;28;20214;-83
2021/12/19 02:56:52;;;;;;;8.03;3.77;;;6.10;99.90;;;;;;8316426;28;20206;-84
2021/12/19 03:00:53;;;;;;;8.17;3.80;;;6.10;99.90;;;;;;8307310;28;20183;-84
2021/12/19 03:05:02;;;;;;;9.30;4.57;;;6.10;99.90;;;;;;8309352;28;20220;-82
2021/12/19 03:09:07;;;;;;;8.10;3.83;;;6.10;99.90;;;;;;8289526;28;20212;-84
2021/12/19 03:21:28;;;;;;;4.97;3.40;;;6.10;99.90;;;;;;8329212;28;20186;-82
2021/12/19 03:25:33;;;;;;;10.40;3.90;;;6.10;99.90;;;;;;8310714;28;20186;-83
2021/12/19 03:29:34;;;;;;;8.03;3.60;;;6.10;99.90;;;;;;8311040;28;20197;-82
2021/12/19 03:33:35;;;;;;;5.83;3.47;;;6.10;99.90;;;;;;8309276;28;20186;-84
2021/12/19 03:37:37;;;;;;;5.27;2.97;;;6.10;99.90;;;;;;8309715;28;20194;-81
2021/12/19 03:41:37;;;;;;;8.10;2.90;;;6.20;99.90;;;;;;8317828;28;20192;-82
2021/12/19 03:45:40;;;;;;;6.23;3.07;;;6.20;99.90;;;;;;8316534;28;20190;-82
2021/12/19 03:49:40;;;;;;;4.70;2.93;;;6.20;99.90;;;;;;8314772;28;20192;-83
2021/12/19 03:53:41;;;;;;;7.23;2.83;;;6.10;99.90;;;;;;8311546;28;20325;-82
2021/12/19 03:57:42;;;;;;;7.83;3.23;;;6.20;99.90;;;;;;8310740;28;20183;-82
2021/12/19 04:01:51;;;;;;;6.67;3.47;;;6.20;99.90;;;;;;8327835;28;20178;-82
2021/12/19 04:05:55;;;;;;;10.47;3.50;;;6.20;99.90;;;;;;8307905;28;20218;-83
2021/12/19 04:09:56;;;;;;;9.53;3.27;;;6.20;99.90;;;;;;8308754;28;20198;-84
2021/12/19 04:13:57;;;;;;;5.83;3.30;;;6.20;99.90;;;;;;8307231;28;20210;-84
2021/12/19 04:17:58;;;;;;;5.83;3.10;;;6.20;99.90;;;;;;8314269;28;20192;-82
2021/12/19 04:21:59;;;;;;;6.67;3.20;;;6.20;99.90;;;;;;8310395;28;20213;-83
2021/12/19 04:26:00;;;;;;;7.50;3.27;;;6.30;99.90;;;;;;8310371;28;20193;-84
2021/12/19 04:30:01;;;;;;;6.60;3.83;;;6.30;99.90;;;;;;8307104;28;20264;-83
2021/12/19 04:34:03;;;;;;;7.07;2.90;;;6.30;99.90;;;;;;8307449;28;20333;-83
2021/12/19 04:39:04;;;;;;;10.30;4.13;;;6.30;99.90;;;;;;8312471;28;20188;-84
2021/12/19 04:59:56;;;;;;;7.40;4.07;;;6.30;99.90;;;;;;8324867;28;20193;-84
2021/12/19 05:04:09;;;;;;;8.70;3.67;;;6.30;99.90;;;;;;8307852;28;20193;-84
2021/12/19 05:16:50;;;;;;;6.13;3.60;;;6.30;99.90;;;;;;8337851;28;20225;-83
2021/12/19 05:20:58;;;;;;;8.53;3.97;;;6.30;99.90;;;;;;8311388;28;20186;-83
2021/12/19 05:25:14;;;;;;;9.07;4.50;;;6.30;99.90;;;;;;8313546;28;20236;-84
2021/12/19 05:29:16;;;;;;;6.77;3.70;;;6.30;99.90;;;;;;8316050;28;20273;-84
2021/12/19 05:33:17;;;;;;;8.07;3.20;;;6.30;99.90;;;;;;8331902;28;20193;-83
2021/12/19 05:45:53;;;;;;;6.47;3.40;;;6.30;99.90;;;;;;8324491;28;20195;-85
2021/12/19 05:49:54;;;;;;;4.23;2.90;;;6.20;99.90;;;;;;8304069;28;20187;-82
2021/12/19 05:53:58;;;;;;;7.67;3.63;;;6.20;99.90;;;;;;8307364;28;20372;-84
2021/12/19 05:57:59;;;;;;;6.40;3.30;;;6.20;99.90;;;;;;8309941;28;20179;-83
2021/12/19 06:01:59;;;;;;;6.43;3.37;;;6.20;99.90;;;;;;8307632;28;20171;-81
2021/12/19 06:06:00;;;;;;;5.90;3.30;;;6.20;99.90;;;;;;8310617;28;20191;-81
2021/12/19 06:10:03;;;;;;;7.13;2.93;;;6.10;99.90;;;;;;8312576;28;20218;-82
2021/12/19 06:14:04;;;;;;;4.03;2.83;;;6.10;99.90;;;;;;8308759;28;20204;-82
2021/12/19 06:18:05;;;;;;;8.00;3.20;;;6.10;99.90;;;;;;8308453;28;20183;-83
2021/12/19 06:22:06;;;;;;;6.23;2.97;;;6.10;99.90;;;;;;8309853;28;20189;-81
2021/12/19 06:26:10;;;;;;;4.20;2.60;;;6.10;99.90;;;;;;8318585;28;20190;-83
2021/12/19 06:30:12;;;;;;;5.23;3.10;;;6.10;99.90;;;;;;8306636;28;20194;-82
2021/12/19 06:34:13;;;;;;;4.13;3.33;;;6.10;99.90;;;;;;8335157;28;20260;-84
2021/12/19 06:38:15;;;;;;;4.57;3.13;;;6.10;99.90;;;;;;8315976;28;20202;-83
2021/12/19 06:42:16;;;;;;;3.73;2.93;;;6.00;99.90;;;;;;8317397;28;20189;-84
2021/12/19 06:46:18;;;;;;;5.83;3.30;;;6.00;99.90;;;;;;8313295;28;20256;-83
2021/12/19 06:50:20;;;;;;;5.40;3.00;;;5.90;99.90;;;;;;8321385;28;20183;-84
2021/12/19 06:54:21;;;;;;;4.80;2.97;;;5.80;99.90;;;;;;8302572;28;20356;-82
2021/12/19 06:58:22;;;;;;;5.63;2.90;;;5.80;99.90;;;;;;8308554;28;20202;-83
2021/12/19 07:02:23;;;;;;;6.30;3.00;;;5.80;99.90;;;;;;8308830;28;20183;-86
2021/12/19 07:06:24;;;;;;;3.93;2.90;;;5.80;99.90;;;;;;8306606;28;20198;-86
2021/12/19 07:10:25;;;;;;;8.97;3.33;;;5.80;99.90;;;;;;8315731;28;20198;-83
2021/12/19 07:14:26;;;;;;;7.43;2.80;;;5.80;99.90;;;;;;8316353;28;20203;-84
2021/12/19 07:18:27;;;;;;;4.57;2.67;;;5.80;99.90;;;;;;8311101;28;20186;-82
2021/12/19 07:22:28;;;;;;;4.43;2.40;;;5.80;99.90;;;;;;8306707;28;20194;-83
2021/12/19 07:26:29;;;;;;;4.67;2.40;;;5.80;99.90;;;;;;8309118;28;20273;-85
2021/12/19 07:30:31;;;;;;;3.17;2.40;;;5.90;99.90;;;;;;8309935;28;20187;-83
2021/12/19 07:34:35;;;;;;;4.47;2.67;;;5.90;99.90;;;;;;8307173;28;20210;-85
2021/12/19 07:38:48;;;;;;;5.87;2.53;;;5.90;99.90;;;;;;8328340;28;20179;-84
2021/12/19 07:42:50;;;;;;;4.17;2.23;;;5.90;99.90;;;;;;8328536;28;20190;-83
2021/12/19 07:46:51;;;;;;;3.90;2.20;;;5.90;99.90;;;;;;8304079;28;20213;-83
2021/12/19 07:50:52;;;;;;;2.83;1.80;;;5.90;99.90;;;;;;8306713;28;20198;-83
2021/12/19 07:54:53;;;;;;;3.13;2.30;;;5.90;99.90;;;;;;8313559;28;20213;-85
2021/12/19 07:58:54;;;;;;;4.27;2.30;;;5.90;99.90;;;;;;8307241;28;20222;-84
2021/12/19 08:02:54;;;;;;;3.40;2.10;;;5.90;99.90;;;;;;8315394;28;20179;-84
2021/12/19 08:06:55;;;;;;;5.10;1.67;;;5.90;99.90;;;;;;8308290;28;20182;-85
2021/12/19 08:15:16;;;;;;;4.73;2.53;;;5.90;99.90;;;;;;8323663;28;20324;-86
2021/12/19 08:19:17;;;;;;;3.43;2.20;;;5.80;99.90;;;;;;8313211;28;20186;-84
2021/12/19 08:23:18;;;;;;;5.30;2.50;;;5.80;99.90;;;;;;8312114;28;20186;-84
2021/12/19 08:27:19;;;;;;;2.80;2.10;;;5.70;99.90;;;;;;8325062;28;20182;-85
2021/12/19 08:31:20;;;;;;;3.47;2.27;;;5.80;99.90;;;;;;8314628;28;20285;-83
2021/12/19 08:35:22;;;;;;;4.73;2.30;;;5.90;99.90;;;;;;8308586;28;20340;-84
2021/12/19 08:39:23;;;;;;;4.20;2.10;;;5.90;99.90;;;;;;8310474;28;20182;-81
2021/12/19 08:43:24;;;;;;;4.87;2.30;;;5.90;99.90;;;;;;8342965;28;20200;-82
2021/12/19 08:47:25;;;;;;;6.03;2.27;;;5.90;99.90;;;;;;8319536;28;20194;-85
2021/12/19 08:51:27;;;;;;;3.90;2.80;;;5.90;99.90;;;;;;8326383;28;20186;-83
2021/12/19 08:55:28;;;;;;;5.53;2.47;;;5.90;99.90;;;;;;8329498;28;20214;-85
2021/12/19 08:59:29;;;;;;;6.80;2.47;;;5.90;99.90;;;;;;8327119;28;20236;-83
2021/12/19 09:03:33;;;;;;;4.00;2.10;;;5.90;99.90;;;;;;8326088;28;20192;-84
2021/12/19 09:07:35;;;;;;;3.23;2.17;;;5.90;99.90;;;;;;8315398;28;20202;-81
2021/12/19 09:11:36;;;;;;;7.13;2.80;;;5.90;99.90;;;;;;8321465;28;20191;-83
2021/12/19 09:15:37;;;;;;;4.67;2.30;;;5.80;99.90;;;;;;8328561;28;20205;-84
2021/12/19 09:19:38;;;;;;;4.00;2.20;;;5.80;99.90;;;;;;8322004;28;20188;-81
2021/12/19 09:23:40;;;;;;;4.33;2.30;;;5.80;99.90;;;;;;8327162;28;20186;-85
2021/12/19 09:27:41;;;;;;;3.13;2.10;;;5.80;99.90;;;;;;8322925;28;20191;-82
2021/12/19 09:31:42;;;;;;;4.73;2.73;;;5.80;99.90;;;;;;8313307;28;20187;-83
2021/12/19 09:35:46;;;;;;;5.57;2.73;;;5.80;99.90;;;;;;8319798;28;20216;-85
2021/12/19 09:39:50;;;;;;;4.27;2.30;;;5.70;99.90;;;;;;8315584;28;20201;-85
2021/12/19 09:43:51;;;;;;;6.70;2.97;;;5.70;99.90;;;;;;8311789;28;20191;-80
2021/12/19 09:48:18;;;;;;;5.73;2.87;;;5.70;99.90;;;;;;8330208;28;20253;-86
2021/12/19 09:52:22;;;;;;;5.20;2.70;;;5.70;99.90;;;;;;8320369;28;20213;-84
2021/12/19 09:56:23;;;;;;;4.97;2.77;;;5.70;99.90;;;;;;8314826;28;20237;-82
2021/12/19 10:00:24;;;;;;;6.30;2.80;;;5.70;99.90;;;;;;8313485;28;20210;-82
2021/12/19 10:04:30;;;;;;;5.47;2.80;;;5.80;99.90;;;;;;8320099;28;20194;-82
2021/12/19 10:08:39;;;;;;;7.10;2.40;;;5.90;99.90;;;;;;8315576;28;20249;-85
2021/12/19 10:12:48;;;;;;;5.57;2.10;;;5.90;99.90;;;;;;8325460;28;20193;-82
2021/12/19 10:17:16;;;;;;;4.37;1.93;;;6.00;99.90;;;;;;8294612;28;20242;-83
2021/12/19 10:21:22;;;;;;;6.33;2.63;;;6.00;99.90;;;;;;8309645;28;20648;-84
2021/12/19 10:25:27;;;;;;;4.97;2.60;;;5.90;99.90;;;;;;8305062;28;20201;-84
2021/12/19 10:29:46;;;;;;;6.93;2.93;;;5.90;99.90;;;;;;8320702;28;20194;-81
2021/12/19 10:33:48;;;;;;;3.33;2.20;;;5.90;99.90;;;;;;8306320;28;20195;-84
2021/12/19 10:37:49;;;;;;;3.93;2.30;;;5.90;99.90;;;;;;8313313;28;20179;-84
2021/12/19 10:41:59;;;;;;;4.50;2.87;;;5.90;99.90;;;;;;8317680;28;20187;-87
2021/12/19 10:46:03;;;;;;;6.23;2.40;;;5.90;99.90;;;;;;8327254;28;20190;-84
2021/12/19 10:50:07;;;;;;;4.77;2.00;;;5.90;99.90;;;;;;8313170;28;20213;-82
2021/12/19 10:54:09;;;;;;;4.57;2.40;;;5.90;99.90;;;;;;8313966;28;20257;-85
2021/12/19 10:58:34;;;;;;;4.43;2.37;;;6.00;99.90;;;;;;8313533;28;20240;-85
2021/12/19 11:02:43;;;;;;;5.13;2.17;;;6.00;99.90;;;;;;8312000;28;20270;-81
2021/12/19 11:06:48;;;;;;;6.80;2.53;;;6.00;99.90;;;;;;8322485;28;20193;-83
2021/12/19 11:10:49;;;;;;;5.37;2.30;;;5.90;99.90;;;;;;8319024;28;20213;-83
2021/12/19 11:15:05;;;;;;;4.97;2.83;;;5.80;99.90;;;;;;8315679;28;20233;-83
2021/12/19 11:19:06;;;;;;;3.37;2.37;;;5.70;99.90;;;;;;8312169;28;20191;-83
2021/12/19 11:23:07;;;;;;;3.63;2.30;;;5.80;99.90;;;;;;8316539;28;20186;-84
2021/12/19 11:27:08;;;;;;;4.83;2.30;;;5.80;99.90;;;;;;8310382;28;20193;-84
2021/12/19 11:31:12;;;;;;;5.80;2.53;;;5.70;99.90;;;;;;8313952;28;20182;-81
2021/12/19 11:35:20;;;;;;;3.07;2.17;;;5.70;99.90;;;;;;8316130;28;20306;-85
2021/12/19 11:39:30;;;;;;;3.00;1.93;;;5.70;99.90;;;;;;8318108;28;20186;-83
2021/12/19 11:43:40;;;;;;;4.60;2.10;;;5.80;99.90;;;;;;8322588;28;20201;-82
2021/12/19 11:47:54;;;;;;;3.60;1.97;;;5.90;99.90;;;;;;8309441;28;20187;-82
2021/12/19 11:52:25;;;;;;;2.57;1.50;;;5.90;99.90;;;;;;8311978;28;20209;-84
2021/12/19 11:56:26;;;;;;;2.63;1.60;;;5.90;99.90;;;;;;8315087;28;20213;-84
2021/12/19 12:00:33;;;;;;;2.40;1.80;;;5.90;99.90;;;;;;8318946;28;20178;-84
2021/12/19 12:04:35;;;;;;;3.23;2.03;;;5.80;99.90;;;;;;8316357;28;20190;-83
2021/12/19 12:08:36;;;;;;;3.30;1.87;;;5.70;99.90;;;;;;8308725;28;20297;-81
2021/12/19 12:12:50;;;;;;;2.43;1.97;;;5.70;99.90;;;;;;8309586;28;20185;-81
2021/12/19 12:16:53;;;;;;;4.60;2.67;;;5.70;99.90;;;;;;8300737;28;20202;-83
2021/12/19 12:20:54;;;;;;;7.40;2.60;;;5.60;99.90;;;;;;8315612;28;20196;-81
2021/12/19 12:25:18;;;;;;;4.27;2.23;;;5.50;99.90;;;;;;8296214;28;20186;-83
2021/12/19 12:29:21;;;;;;;3.67;1.80;;;5.40;99.90;;;;;;8299880;28;20190;-85
2021/12/19 12:33:26;;;;;;;5.23;1.63;;;5.40;99.90;;;;;;8306244;28;20217;-83
2021/12/19 12:37:27;;;;;;;2.37;1.60;;;5.40;99.90;;;;;;8301200;28;20218;-83
2021/12/19 12:41:51;;;;;;;4.03;1.67;;;5.40;99.90;;;;;;8326759;28;20225;-82
2021/12/19 12:46:01;;;;;;;6.33;1.80;;;5.50;99.90;;;;;;8304915;28;20186;-82
2021/12/19 12:50:05;;;;;;;2.83;1.47;;;5.50;99.90;;;;;;8319951;28;20215;-81
2021/12/19 12:54:13;;;;;;;3.30;1.10;;;5.50;99.90;;;;;;8306331;28;20214;-82
2021/12/19 12:58:17;;;;;;;2.50;1.60;;;5.60;99.90;;;;;;8302381;28;20268;-84
2021/12/19 13:02:29;;;;;;;1.87;1.33;;;5.60;99.90;;;;;;8300807;28;20183;-84
2021/12/19 13:06:58;;;;;;;2.67;1.40;;;5.60;99.90;;;;;;8313266;28;20268;-85
2021/12/19 13:10:59;;;;;;;1.37;0.90;;;5.60;99.90;;;;;;8305680;28;20202;-83
2021/12/19 13:15:03;;;;;;;1.23;1.10;;;5.60;99.90;;;;;;8306547;28;20213;-83
2021/12/19 13:19:10;;;;;;;2.23;1.43;;;5.60;99.90;;;;;;8306915;28;20187;-85
2021/12/19 13:23:11;;;;;;;2.07;1.47;;;5.50;99.90;;;;;;8309941;28;20230;-85
2021/12/19 13:27:18;;;;;;;3.03;1.83;;;5.40;99.90;;;;;;8312018;28;20190;-85
2021/12/19 13:31:24;;;;;;;2.27;1.60;;;5.40;99.90;;;;;;8299120;28;20190;-84
2021/12/19 13:35:37;;;;;;;1.87;1.57;;;5.30;99.90;;;;;;8302879;28;20203;-83
2021/12/19 13:39:41;;;;;;;2.53;1.70;;;5.20;99.90;;;;;;8312799;28;20186;-83
2021/12/19 13:43:43;;;;;;;2.93;2.03;;;5.20;99.90;;;;;;8308314;28;20190;-82
2021/12/19 13:47:44;;;;;;;2.93;2.10;;;5.10;99.90;;;;;;8307078;28;20191;-83
2021/12/19 13:51:46;;;;;;;3.60;2.63;;;5.10;99.90;;;;;;8314591;28;20187;-84
2021/12/19 13:55:52;;;;;;;2.60;1.00;;;5.10;99.90;;;;;;8306798;28;20210;-86
2021/12/19 13:59:53;;;;;;;2.03;1.17;;;5.10;99.90;;;;;;8319209;28;20200;-82
2021/12/19 14:03:57;;;;;;;2.10;1.37;;;5.10;99.90;;;;;;8309632;28;20198;-82
2021/12/19 14:08:00;;;;;;;1.50;1.40;;;5.10;99.90;;;;;;8308591;28;20198;-81
2021/12/19 14:12:11;;;;;;;2.60;1.80;;;5.00;99.90;;;;;;8305381;28;20221;-84
2021/12/19 14:16:15;;;;;;;2.57;2.00;;;5.00;99.90;;;;;;8307809;28;20218;-82
2021/12/19 14:20:17;;;;;;;2.03;1.73;;;4.90;99.90;;;;;;8311783;28;20194;-82
2021/12/19 14:24:31;;;;;;;3.30;2.10;;;4.90;99.90;;;;;;8310034;28;20198;-81
2021/12/19 14:28:36;;;;;;;3.87;2.20;;;4.90;99.90;;;;;;8329477;28;20183;-81
2021/12/19 14:32:45;;;;;;;3.20;2.10;;;4.90;99.90;;;;;;8306198;28;20205;-83
2021/12/19 14:36:46;;;;;;;3.90;1.90;;;4.90;99.90;;;;;;8304895;28;20213;-87
2021/12/19 14:40:48;;;;;;;3.60;1.93;;;4.80;99.90;;;;;;8308719;28;20191;-82
2021/12/19 14:44:57;;;;;;;2.70;1.20;;;4.80;99.90;;;;;;8303852;28;20191;-85
2021/12/19 14:49:10;;;;;;;2.63;1.07;;;4.90;99.90;;;;;;8308676;28;20258;-83
2021/12/19 14:53:20;;;;;;;1.40;1.10;;;4.90;99.90;;;;;;8327513;28;20214;-84
2021/12/19 14:57:24;;;;;;;2.17;1.23;;;4.90;99.90;;;;;;8304386;28;20214;-84
2021/12/19 15:01:43;;;;;;;3.57;1.20;;;4.90;99.90;;;;;;8306182;28;20190;-83
2021/12/19 15:05:44;;;;;;;2.03;1.13;;;4.90;99.90;;;;;;8302382;28;20194;-81
2021/12/19 15:09:45;;;;;;;1.67;1.20;;;4.90;99.90;;;;;;8305523;28;20198;-82
2021/12/19 15:13:53;;;;;;;1.63;1.27;;;4.90;99.90;;;;;;8305948;28;20186;-84
2021/12/19 15:17:54;;;;;;;1.30;1.20;;;4.90;99.90;;;;;;8308783;28;20225;-82
2021/12/19 15:21:55;;;;;;;2.40;1.77;;;5.00;99.90;;;;;;8310581;28;20192;-84
2021/12/19 15:25:56;;;;;;;2.40;1.40;;;4.90;99.90;;;;;;8328717;28;20190;-83
2021/12/19 15:30:00;;;;;;;1.60;1.40;;;5.00;99.90;;;;;;8304971;28;20197;-84
2021/12/19 15:34:01;;;;;;;2.17;1.40;;;5.00;99.90;;;;;;8317338;28;20242;-81
2021/12/19 15:38:03;;;;;;;2.83;1.70;;;5.00;99.90;;;;;;8332499;28;20182;-81
2021/12/19 15:42:05;;;;;;;2.87;1.43;;;5.00;99.90;;;;;;8311539;28;20191;-82
2021/12/19 15:46:07;;;;;;;2.47;1.40;;;5.00;99.90;;;;;;8304779;28;20190;-83
2021/12/19 15:50:09;;;;;;;1.43;1.33;;;5.00;99.90;;;;;;8302228;28;20194;-85
2021/12/19 15:54:10;;;;;;;2.43;1.60;;;5.00;99.90;;;;;;8300881;28;20242;-81
2021/12/19 15:58:12;;;;;;;1.93;1.40;;;5.10;99.90;;;;;;8308102;28;20186;-83
2021/12/19 16:02:17;;;;;;;1.80;1.30;;;5.10;99.90;;;;;;8309489;28;20195;-83
2021/12/19 16:06:18;;;;;;;3.30;1.50;;;5.10;99.90;;;;;;8310507;28;20194;-82
2021/12/19 16:10:20;;;;;;;1.63;1.07;;;5.10;99.90;;;;;;8315912;28;20208;-82
2021/12/19 16:14:21;;;;;;;1.20;1.10;;;5.10;99.90;;;;;;8309141;28;20212;-81
2021/12/19 16:18:22;;;;;;;3.60;1.70;;;5.10;99.90;;;;;;8308502;28;20252;-84
2021/12/19 16:22:26;;;;;;;1.77;1.30;;;5.20;99.90;;;;;;8313468;28;20187;-82
2021/12/19 16:26:28;;;;;;;3.00;1.73;;;5.20;99.90;;;;;;8293318;28;20197;-84
2021/12/19 16:30:32;;;;;;;3.33;2.10;;;5.20;99.90;;;;;;8324595;28;20202;-84
2021/12/19 16:34:33;;;;;;;2.23;1.63;;;5.20;99.90;;;;;;8303439;28;20241;-84
2021/12/19 16:38:35;;;;;;;3.13;2.07;;;5.10;99.90;;;;;;8332586;28;20206;-84
2021/12/19 16:46:40;;;;;;;3.07;1.83;;;5.10;99.90;;;;;;8325808;28;20194;-82
2021/12/19 16:50:41;;;;;;;3.57;2.40;;;5.20;99.90;;;;;;8304014;28;20208;-83
2021/12/19 16:54:42;;;;;;;4.83;2.20;;;5.20;99.90;;;;;;8311347;28;20268;-82
2021/12/19 16:58:44;;;;;;;3.70;1.90;;;5.20;99.90;;;;;;8309268;28;20195;-84
2021/12/19 17:02:45;;;;;;;3.83;2.40;;;5.20;99.90;;;;;;8297984;28;20186;-85
2021/12/19 17:06:47;;;;;;;5.70;2.60;;;5.20;99.90;;;;;;8294357;28;20190;-84
2021/12/19 17:10:48;;;;;;;5.00;2.43;;;5.20;99.90;;;;;;8321628;28;20217;-84
2021/12/19 17:14:49;;;;;;;2.07;1.50;;;5.20;99.90;;;;;;8319756;28;20331;-83
2021/12/19 17:18:50;;;;;;;1.80;1.43;;;5.20;99.90;;;;;;8315810;28;20220;-83
2021/12/19 17:22:53;;;;;;;2.53;1.70;;;5.20;99.90;;;;;;8332101;28;20182;-84
2021/12/19 17:26:54;;;;;;;2.40;1.90;;;5.20;99.90;;;;;;8320775;28;20203;-82
2021/12/19 17:30:57;;;;;;;2.80;1.97;;;5.20;99.90;;;;;;8307038;28;20203;-83
2021/12/19 17:34:58;;;;;;;3.33;2.13;;;5.20;99.90;;;;;;8304485;28;20254;-81
2021/12/19 17:39:00;;;;;;;4.47;2.20;;;5.20;99.90;;;;;;8318067;28;20179;-84
2021/12/19 17:43:01;;;;;;;3.13;2.80;;;5.30;99.90;;;;;;8331718;28;20187;-85
2021/12/19 17:47:03;;;;;;;4.00;2.17;;;5.30;99.90;;;;;;8304778;28;20278;-85
2021/12/19 17:51:07;;;;;;;3.60;2.20;;;5.30;99.90;;;;;;8313220;28;20301;-84
2021/12/19 17:55:08;;;;;;;3.47;2.30;;;5.30;99.90;;;;;;8304094;28;20245;-84
2021/12/19 17:59:09;;;;;;;3.87;2.43;;;5.30;99.90;;;;;;8311044;28;20205;-82
2021/12/19 18:03:11;;;;;;;3.67;1.73;;;5.30;99.90;;;;;;8327386;28;20190;-83
2021/12/19 18:07:12;;;;;;;2.27;1.70;;;5.20;99.90;;;;;;8302452;28;20204;-81
2021/12/19 18:11:13;;;;;;;3.47;1.73;;;5.20;99.90;;;;;;8334090;28;20191;-82
2021/12/19 18:15:16;;;;;;;4.27;2.40;;;5.20;99.90;;;;;;8315224;28;20269;-84
2021/12/19 18:19:17;;;;;;;2.47;1.80;;;5.20;99.90;;;;;;8307681;28;20183;-83
2021/12/19 18:23:18;;;;;;;1.77;1.00;;;5.20;99.90;;;;;;8311855;28;20225;-84
2021/12/19 18:27:19;;;;;;;1.80;1.47;;;4.90;99.90;;;;;;8329512;28;20194;-83
2021/12/19 18:31:21;;;;;;;1.83;1.27;;;4.60;99.90;;;;;;8314840;28;20187;-82
2021/12/19 18:35:26;;;;;;;3.10;2.40;;;4.30;99.90;;;;;;8309934;28;20222;-83
2021/12/19 18:39:35;;;;;;;3.83;1.40;;;4.30;99.90;;;;;;8311269;28;20187;-84
2021/12/19 18:43:43;;;;;;;3.27;1.83;;;4.40;99.90;;;;;;8301154;28;20184;-84
2021/12/19 18:47:56;;;;;;;3.67;2.03;;;4.60;99.90;;;;;;8324163;28;20254;-84
2021/12/19 18:56:22;;;;;;;3.47;2.40;;;4.70;99.90;;;;;;8319979;28;20218;-82
2021/12/19 19:00:37;;;;;;;10.07;4.77;;;4.70;99.90;;;;;;8306566;28;20191;-82
2021/12/19 19:04:40;;;;;;;3.07;2.53;;;4.70;99.90;;;;;;8322874;28;20187;-82
2021/12/19 19:08:41;;;;;;;5.53;2.80;;;4.70;99.90;;;;;;8305642;28;20224;-83
2021/12/19 19:12:42;;;;;;;5.50;2.50;;;4.50;99.90;;;;;;8306998;28;20550;-84
2021/12/19 19:16:43;;;;;;;7.83;3.67;;;4.40;99.90;;;;;;8323942;28;20214;-82
2021/12/19 19:20:45;;;;;;;5.93;3.20;;;4.20;99.90;;;;;;8318459;28;20191;-83
2021/12/19 19:24:46;;;;;;;4.77;3.10;;;4.10;99.90;;;;;;8302724;28;20641;-84
2021/12/19 19:28:47;;;;;;;6.37;3.43;;;4.00;99.90;;;;;;8306906;28;20197;-83
2021/12/19 19:32:49;;;;;;;10.60;4.20;;;3.90;99.90;;;;;;8323772;28;20191;-84
2021/12/19 19:36:54;;;;;;;5.83;3.50;;;3.90;99.90;;;;;;8303583;28;20233;-84
2021/12/19 19:49:33;;;;;;;9.43;4.50;;;4.00;99.90;;;;;;8321952;28;20687;-82
2021/12/19 19:53:34;;;;;;;11.67;4.93;;;3.90;99.90;;;;;;8303187;28;20583;-83
2021/12/19 19:57:41;;;;;;;8.03;4.73;;;3.90;99.90;;;;;;8301662;28;20316;-84
2021/12/19 20:01:47;;;;;;;9.73;4.97;;;3.90;99.90;;;;;;8310063;28;20259;-83
2021/12/19 20:05:49;;;;;;;6.97;3.73;;;3.80;99.90;;;;;;8309217;28;20189;-84
2021/12/19 20:09:52;;;;;;;9.73;5.37;;;3.70;99.90;;;;;;8300386;28;20208;-85
2021/12/19 20:13:54;;;;;;;8.83;4.67;;;3.70;99.90;;;;;;8308351;28;20189;-84
2021/12/19 20:17:55;;;;;;;12.80;4.17;;;3.70;99.90;;;;;;8306687;28;20228;-85
2021/12/19 20:21:57;;;;;;;13.33;5.00;;;3.70;99.90;;;;;;8309129;28;20187;-84
2021/12/19 20:25:58;;;;;;;8.13;3.93;;;3.70;99.90;;;;;;8304241;28;20256;-85
2021/12/19 20:30:00;;;;;;;9.20;4.40;;;3.50;99.90;;;;;;8305577;28;20191;-82
2021/12/19 20:34:01;;;;;;;12.17;4.50;;;3.40;99.90;;;;;;8313517;28;20182;-82
2021/12/19 20:38:02;;;;;;;11.37;3.57;;;3.40;99.90;;;;;;8322676;28;20214;-84
2021/12/19 20:42:04;;;;;;;12.67;4.90;;;3.30;99.90;;;;;;8308341;28;20191;-84
2021/12/19 20:46:06;;;;;;;11.30;4.17;;;3.30;99.90;;;;;;8301850;28;20226;-84
2021/12/19 20:50:13;;;;;;;12.27;3.90;;;3.10;99.90;;;;;;8309512;28;20198;-84
2021/12/19 20:54:20;;;;;;;7.87;3.83;;;3.10;99.90;;;;;;8304091;28;20264;-82
2021/12/19 20:58:22;;;;;;;7.10;3.20;;;3.00;99.90;;;;;;8334272;28;20195;-83
2021/12/19 21:02:23;;;;;;;7.27;3.93;;;3.00;99.90;;;;;;8318312;28;20190;-81
2021/12/19 21:06:24;;;;;;;6.23;3.47;;;2.90;99.90;;;;;;8316075;28;20194;-83
2021/12/19 21:10:25;;;;;;;8.23;3.40;;;2.80;99.90;;;;;;8306475;28;20209;-84
2021/12/19 21:23:10;;;;;;;9.73;4.37;;;2.40;99.90;;;;;;8325678;28;20201;-84
2021/12/19 21:27:15;;;;;;;11.07;5.13;;;2.20;99.90;;;;;;8289872;28;20909;-83
2021/12/19 21:31:16;;;;;;;11.10;4.60;;;2.10;99.90;;;;;;8301055;28;20268;-82
2021/12/19 21:39:19;;;;;;;10.03;4.17;;;1.90;99.90;;;;;;8318846;28;20252;-85
2021/12/19 21:43:20;;;;;;;10.50;5.60;;;1.80;99.90;;;;;;8305180;28;20187;-81
2021/12/19 21:47:21;;;;;;;10.07;5.03;;;1.80;99.90;;;;;;8304106;28;20187;-82
2021/12/19 21:51:22;;;;;;;9.93;4.77;;;1.70;99.90;;;;;;8303438;28;20254;-82
2021/12/19 21:55:23;;;;;;;12.07;6.43;;;1.70;99.90;;;;;;8322452;28;20233;-82
2021/12/19 21:59:24;;;;;;;13.40;5.37;;;1.70;99.90;;;;;;8304496;28;20260;-82
2021/12/19 22:03:25;;;;;;;13.83;5.60;;;1.60;99.90;;;;;;8308890;28;20190;-82
2021/12/19 22:07:27;;;;;;;11.93;5.20;;;1.60;99.90;;;;;;8303629;28;20213;-83
2021/12/19 22:11:33;;;;;;;13.83;5.13;;;1.60;99.90;;;;;;8308100;28;20377;-83
2021/12/19 22:15:37;;;;;;;11.70;5.43;;;1.60;99.90;;;;;;8301604;28;20214;-83
2021/12/19 22:19:38;;;;;;;8.23;3.47;;;1.70;99.90;;;;;;8301452;28;20226;-83
2021/12/19 22:23:39;;;;;;;8.70;3.43;;;1.70;99.90;;;;;;8306717;28;20186;-84
2021/12/19 22:27:40;;;;;;;6.07;3.33;;;1.60;99.90;;;;;;8324235;28;20190;-83
2021/12/19 22:31:41;;;;;;;7.70;3.70;;;1.60;99.90;;;;;;8309276;28;20224;-83
2021/12/19 22:35:42;;;;;;;10.40;3.63;;;1.50;99.90;;;;;;8302556;28;20507;-81
2021/12/19 22:39:44;;;;;;;9.17;2.97;;;1.40;99.90;;;;;;8314801;28;20201;-83
2021/12/19 22:43:45;;;;;;;9.43;3.87;;;1.30;99.90;;;;;;8304632;28;20281;-82
2021/12/19 22:47:46;;;;;;;7.50;3.07;;;1.40;99.90;;;;;;8332396;28;20185;-82